sensor_id;sensor_type;location;lat;lon;timestamp;temperature;humidity
37530;DHT22;23374;52.758;6.872;2024-01-30T00:00:50;6.40;1.00
37530;DHT22;23374;52.758;6.872;2024-01-30T00:03:11;6.40;1.00
37530;DHT22;23374;52.758;6.872;2024-01-30T00:05:31;6.50;1.00
37530;DHT22;23374;52.758;6.872;2024-01-30T00:07:52;6.50;1.00
37530;DHT22;23374;52.758;6.872;2024-01-30T00:10:13;6.50;1.00
37530;DHT22;23374;52.758;6.872;2024-01-30T00:12:33;6.50;1.00
37530;DHT22;23374;52.758;6.872;2024-01-30T00:14:54;6.60;1.00
37530;DHT22;23374;52.758;6.872;2024-01-30T00:17:14;6.60;1.00
37530;DHT22;23374;52.758;6.872;2024-01-30T00:19:35;6.60;1.00
37530;DHT22;23374;52.758;6.872;2024-01-30T00:21:55;6.60;1.00
37530;DHT22;23374;52.758;6.872;2024-01-30T00:24:16;6.60;1.00
37530;DHT22;23374;52.758;6.872;2024-01-30T00:26:37;6.60;1.00
37530;DHT22;23374;52.758;6.872;2024-01-30T00:28:57;6.60;1.00
37530;DHT22;23374;52.758;6.872;2024-01-30T00:31:17;6.70;1.00
37530;DHT22;23374;52.758;6.872;2024-01-30T00:33:39;6.70;1.00
37530;DHT22;23374;52.758;6.872;2024-01-30T00:35:59;6.70;1.00
37530;DHT22;23374;52.758;6.872;2024-01-30T00:38:19;6.70;1.00
37530;DHT22;23374;52.758;6.872;2024-01-30T00:40:40;6.70;1.00
37530;DHT22;23374;52.758;6.872;2024-01-30T00:43:00;6.70;1.00
37530;DHT22;23374;52.758;6.872;2024-01-30T00:45:20;6.70;7.50
37530;DHT22;23374;52.758;6.872;2024-01-30T00:47:41;6.70;10.90
37530;DHT22;23374;52.758;6.872;2024-01-30T00:50:02;6.70;1.00
37530;DHT22;23374;52.758;6.872;2024-01-30T00:52:22;6.70;1.00
37530;DHT22;23374;52.758;6.872;2024-01-30T00:54:42;6.70;1.00
37530;DHT22;23374;52.758;6.872;2024-01-30T00:57:03;6.60;1.00
37530;DHT22;23374;52.758;6.872;2024-01-30T00:59:24;6.60;1.00
37530;DHT22;23374;52.758;6.872;2024-01-30T01:01:44;6.50;1.00
37530;DHT22;23374;52.758;6.872;2024-01-30T01:04:04;6.50;1.00
37530;DHT22;23374;52.758;6.872;2024-01-30T01:06:24;6.50;1.00
37530;DHT22;23374;52.758;6.872;2024-01-30T01:08:44;6.50;1.00
37530;DHT22;23374;52.758;6.872;2024-01-30T01:11:04;6.50;1.00
37530;DHT22;23374;52.758;6.872;2024-01-30T01:13:25;6.50;1.00
37530;DHT22;23374;52.758;6.872;2024-01-30T01:15:45;6.50;1.00
37530;DHT22;23374;52.758;6.872;2024-01-30T01:18:05;6.50;52.10
37530;DHT22;23374;52.758;6.872;2024-01-30T01:20:26;6.50;84.20
37530;DHT22;23374;52.758;6.872;2024-01-30T01:22:46;6.50;99.90
37530;DHT22;23374;52.758;6.872;2024-01-30T01:25:06;6.50;99.90
37530;DHT22;23374;52.758;6.872;2024-01-30T01:27:28;6.50;99.90
37530;DHT22;23374;52.758;6.872;2024-01-30T01:29:48;6.60;99.90
37530;DHT22;23374;52.758;6.872;2024-01-30T01:32:08;6.60;99.90
37530;DHT22;23374;52.758;6.872;2024-01-30T01:34:29;6.60;99.90
37530;DHT22;23374;52.758;6.872;2024-01-30T01:36:50;6.60;99.90
37530;DHT22;23374;52.758;6.872;2024-01-30T01:39:11;6.60;99.90
37530;DHT22;23374;52.758;6.872;2024-01-30T01:41:32;6.60;99.90
37530;DHT22;23374;52.758;6.872;2024-01-30T01:43:53;6.60;99.90
37530;DHT22;23374;52.758;6.872;2024-01-30T01:46:13;6.70;99.90
37530;DHT22;23374;52.758;6.872;2024-01-30T01:48:33;6.70;99.90
37530;DHT22;23374;52.758;6.872;2024-01-30T01:50:54;6.70;99.90
37530;DHT22;23374;52.758;6.872;2024-01-30T01:53:15;6.70;99.90
37530;DHT22;23374;52.758;6.872;2024-01-30T01:55:37;6.80;99.90
37530;DHT22;23374;52.758;6.872;2024-01-30T01:57:57;6.80;99.90
37530;DHT22;23374;52.758;6.872;2024-01-30T02:00:18;6.80;99.90
37530;DHT22;23374;52.758;6.872;2024-01-30T02:02:40;6.80;1.00
37530;DHT22;23374;52.758;6.872;2024-01-30T02:05:01;6.80;99.90
37530;DHT22;23374;52.758;6.872;2024-01-30T02:07:22;6.80;1.00
37530;DHT22;23374;52.758;6.872;2024-01-30T02:09:43;6.90;1.00
37530;DHT22;23374;52.758;6.872;2024-01-30T02:12:05;6.90;1.00
37530;DHT22;23374;52.758;6.872;2024-01-30T02:14:25;6.90;1.00
37530;DHT22;23374;52.758;6.872;2024-01-30T02:16:45;6.90;1.00
37530;DHT22;23374;52.758;6.872;2024-01-30T02:19:05;6.90;1.00
37530;DHT22;23374;52.758;6.872;2024-01-30T02:21:26;6.90;1.00
37530;DHT22;23374;52.758;6.872;2024-01-30T02:23:47;7.00;1.00
37530;DHT22;23374;52.758;6.872;2024-01-30T02:26:08;7.00;1.00
37530;DHT22;23374;52.758;6.872;2024-01-30T02:28:28;7.00;99.90
37530;DHT22;23374;52.758;6.872;2024-01-30T02:30:49;7.00;99.90
37530;DHT22;23374;52.758;6.872;2024-01-30T02:33:09;7.00;99.90
37530;DHT22;23374;52.758;6.872;2024-01-30T02:35:30;7.00;1.00
37530;DHT22;23374;52.758;6.872;2024-01-30T02:37:50;7.00;1.00
37530;DHT22;23374;52.758;6.872;2024-01-30T02:40:12;7.00;1.00
37530;DHT22;23374;52.758;6.872;2024-01-30T02:42:32;7.10;1.00
37530;DHT22;23374;52.758;6.872;2024-01-30T02:44:52;7.10;1.00
37530;DHT22;23374;52.758;6.872;2024-01-30T02:47:13;7.10;1.00
37530;DHT22;23374;52.758;6.872;2024-01-30T02:49:33;7.10;1.00
37530;DHT22;23374;52.758;6.872;2024-01-30T02:51:54;7.10;1.00
37530;DHT22;23374;52.758;6.872;2024-01-30T02:54:15;7.10;1.00
37530;DHT22;23374;52.758;6.872;2024-01-30T02:56:35;7.10;1.00
37530;DHT22;23374;52.758;6.872;2024-01-30T02:58:55;7.10;1.00
37530;DHT22;23374;52.758;6.872;2024-01-30T03:01:16;7.10;99.90
37530;DHT22;23374;52.758;6.872;2024-01-30T03:03:36;7.10;99.90
37530;DHT22;23374;52.758;6.872;2024-01-30T03:05:57;7.10;99.90
37530;DHT22;23374;52.758;6.872;2024-01-30T03:08:17;7.10;99.90
37530;DHT22;23374;52.758;6.872;2024-01-30T03:10:37;7.10;99.90
37530;DHT22;23374;52.758;6.872;2024-01-30T03:12:58;7.10;99.90
37530;DHT22;23374;52.758;6.872;2024-01-30T03:15:18;7.20;99.90
37530;DHT22;23374;52.758;6.872;2024-01-30T03:17:38;7.10;99.90
37530;DHT22;23374;52.758;6.872;2024-01-30T03:19:59;7.20;99.90
37530;DHT22;23374;52.758;6.872;2024-01-30T03:22:19;7.20;99.90
37530;DHT22;23374;52.758;6.872;2024-01-30T03:24:39;7.20;99.90
37530;DHT22;23374;52.758;6.872;2024-01-30T03:26:59;7.20;99.90
37530;DHT22;23374;52.758;6.872;2024-01-30T03:29:20;7.20;99.90
37530;DHT22;23374;52.758;6.872;2024-01-30T03:31:40;7.10;99.90
37530;DHT22;23374;52.758;6.872;2024-01-30T03:34:01;7.20;99.90
37530;DHT22;23374;52.758;6.872;2024-01-30T03:36:22;7.10;99.90
37530;DHT22;23374;52.758;6.872;2024-01-30T03:38:42;7.20;99.90
37530;DHT22;23374;52.758;6.872;2024-01-30T03:41:07;7.20;99.90
37530;DHT22;23374;52.758;6.872;2024-01-30T03:43:27;7.20;99.90
37530;DHT22;23374;52.758;6.872;2024-01-30T03:45:48;7.20;99.90
37530;DHT22;23374;52.758;6.872;2024-01-30T03:48:08;7.20;99.90
37530;DHT22;23374;52.758;6.872;2024-01-30T03:50:28;7.20;99.90
37530;DHT22;23374;52.758;6.872;2024-01-30T03:52:49;7.20;99.90
37530;DHT22;23374;52.758;6.872;2024-01-30T03:55:09;7.20;99.90
37530;DHT22;23374;52.758;6.872;2024-01-30T03:57:29;7.20;99.90
37530;DHT22;23374;52.758;6.872;2024-01-30T03:59:50;7.20;99.90
37530;DHT22;23374;52.758;6.872;2024-01-30T04:02:11;7.20;99.90
37530;DHT22;23374;52.758;6.872;2024-01-30T04:04:32;7.20;99.90
37530;DHT22;23374;52.758;6.872;2024-01-30T04:06:52;7.20;99.90
37530;DHT22;23374;52.758;6.872;2024-01-30T04:09:13;7.30;99.90
37530;DHT22;23374;52.758;6.872;2024-01-30T04:11:35;7.20;99.90
37530;DHT22;23374;52.758;6.872;2024-01-30T04:13:55;7.30;99.90
37530;DHT22;23374;52.758;6.872;2024-01-30T04:16:21;7.30;99.90
37530;DHT22;23374;52.758;6.872;2024-01-30T04:18:42;7.30;99.90
37530;DHT22;23374;52.758;6.872;2024-01-30T04:21:02;7.30;99.90
37530;DHT22;23374;52.758;6.872;2024-01-30T04:23:23;7.40;99.90
37530;DHT22;23374;52.758;6.872;2024-01-30T04:25:43;7.40;99.90
37530;DHT22;23374;52.758;6.872;2024-01-30T04:28:04;7.40;99.90
37530;DHT22;23374;52.758;6.872;2024-01-30T04:30:24;7.40;99.90
37530;DHT22;23374;52.758;6.872;2024-01-30T04:32:45;7.50;99.90
37530;DHT22;23374;52.758;6.872;2024-01-30T04:35:05;7.40;99.90
37530;DHT22;23374;52.758;6.872;2024-01-30T04:37:26;7.50;99.90
37530;DHT22;23374;52.758;6.872;2024-01-30T04:39:46;7.50;99.90
37530;DHT22;23374;52.758;6.872;2024-01-30T04:42:06;7.50;99.90
37530;DHT22;23374;52.758;6.872;2024-01-30T04:44:26;7.50;99.90
37530;DHT22;23374;52.758;6.872;2024-01-30T04:46:46;7.50;99.90
37530;DHT22;23374;52.758;6.872;2024-01-30T04:49:06;7.50;99.90
37530;DHT22;23374;52.758;6.872;2024-01-30T04:51:29;7.50;99.90
37530;DHT22;23374;52.758;6.872;2024-01-30T04:53:49;7.60;99.90
37530;DHT22;23374;52.758;6.872;2024-01-30T04:56:09;7.60;99.90
37530;DHT22;23374;52.758;6.872;2024-01-30T04:58:30;7.60;99.90
37530;DHT22;23374;52.758;6.872;2024-01-30T05:00:50;7.60;99.90
37530;DHT22;23374;52.758;6.872;2024-01-30T05:03:12;7.60;99.90
37530;DHT22;23374;52.758;6.872;2024-01-30T05:05:32;7.60;99.90
37530;DHT22;23374;52.758;6.872;2024-01-30T05:07:52;7.60;99.90
37530;DHT22;23374;52.758;6.872;2024-01-30T05:10:13;7.60;99.90
37530;DHT22;23374;52.758;6.872;2024-01-30T05:12:33;7.70;99.90
37530;DHT22;23374;52.758;6.872;2024-01-30T05:14:53;7.70;99.90
37530;DHT22;23374;52.758;6.872;2024-01-30T05:17:13;7.70;99.90
37530;DHT22;23374;52.758;6.872;2024-01-30T05:19:33;7.70;99.90
37530;DHT22;23374;52.758;6.872;2024-01-30T05:21:54;7.70;99.90
37530;DHT22;23374;52.758;6.872;2024-01-30T05:24:14;7.70;99.90
37530;DHT22;23374;52.758;6.872;2024-01-30T05:26:35;7.70;99.90
37530;DHT22;23374;52.758;6.872;2024-01-30T05:28:55;7.80;99.90
37530;DHT22;23374;52.758;6.872;2024-01-30T05:31:15;7.70;99.90
37530;DHT22;23374;52.758;6.872;2024-01-30T05:33:36;7.70;99.90
37530;DHT22;23374;52.758;6.872;2024-01-30T05:35:56;7.70;99.90
37530;DHT22;23374;52.758;6.872;2024-01-30T05:38:16;7.70;99.90
37530;DHT22;23374;52.758;6.872;2024-01-30T05:40:37;7.70;99.90
37530;DHT22;23374;52.758;6.872;2024-01-30T05:42:57;7.70;99.90
37530;DHT22;23374;52.758;6.872;2024-01-30T05:45:22;7.80;99.90
37530;DHT22;23374;52.758;6.872;2024-01-30T05:47:43;7.80;99.90
37530;DHT22;23374;52.758;6.872;2024-01-30T05:50:04;7.80;99.90
37530;DHT22;23374;52.758;6.872;2024-01-30T05:52:24;7.80;99.90
37530;DHT22;23374;52.758;6.872;2024-01-30T05:54:45;7.90;99.90
37530;DHT22;23374;52.758;6.872;2024-01-30T05:57:05;7.90;99.90
37530;DHT22;23374;52.758;6.872;2024-01-30T05:59:26;7.90;99.90
37530;DHT22;23374;52.758;6.872;2024-01-30T06:01:47;7.90;99.90
37530;DHT22;23374;52.758;6.872;2024-01-30T06:04:09;7.90;99.90
37530;DHT22;23374;52.758;6.872;2024-01-30T06:06:29;8.00;99.90
37530;DHT22;23374;52.758;6.872;2024-01-30T06:08:49;8.00;99.90
37530;DHT22;23374;52.758;6.872;2024-01-30T06:11:12;8.00;99.90
37530;DHT22;23374;52.758;6.872;2024-01-30T06:13:33;8.00;99.90
37530;DHT22;23374;52.758;6.872;2024-01-30T06:15:54;8.00;99.90
37530;DHT22;23374;52.758;6.872;2024-01-30T06:18:14;8.00;99.90
37530;DHT22;23374;52.758;6.872;2024-01-30T06:20:34;8.00;99.90
37530;DHT22;23374;52.758;6.872;2024-01-30T06:22:55;8.00;99.90
37530;DHT22;23374;52.758;6.872;2024-01-30T06:25:15;8.00;99.90
37530;DHT22;23374;52.758;6.872;2024-01-30T06:27:36;8.00;99.90
37530;DHT22;23374;52.758;6.872;2024-01-30T06:29:57;8.00;99.90
37530;DHT22;23374;52.758;6.872;2024-01-30T06:32:18;8.00;99.90
37530;DHT22;23374;52.758;6.872;2024-01-30T06:34:38;8.10;99.90
37530;DHT22;23374;52.758;6.872;2024-01-30T06:37:00;8.00;99.50
37530;DHT22;23374;52.758;6.872;2024-01-30T06:39:20;8.10;99.90
37530;DHT22;23374;52.758;6.872;2024-01-30T06:41:41;8.10;99.90
37530;DHT22;23374;52.758;6.872;2024-01-30T06:44:04;8.10;99.90
37530;DHT22;23374;52.758;6.872;2024-01-30T06:46:26;8.20;99.90
37530;DHT22;23374;52.758;6.872;2024-01-30T06:48:47;8.20;99.90
37530;DHT22;23374;52.758;6.872;2024-01-30T06:51:08;8.30;99.90
37530;DHT22;23374;52.758;6.872;2024-01-30T06:53:28;8.30;91.90
37530;DHT22;23374;52.758;6.872;2024-01-30T06:55:48;8.30;50.80
37530;DHT22;23374;52.758;6.872;2024-01-30T06:58:09;8.30;5.50
37530;DHT22;23374;52.758;6.872;2024-01-30T07:00:29;8.30;3.60
37530;DHT22;23374;52.758;6.872;2024-01-30T07:02:49;8.30;1.00
37530;DHT22;23374;52.758;6.872;2024-01-30T07:05:10;8.30;1.00
37530;DHT22;23374;52.758;6.872;2024-01-30T07:07:30;8.30;1.00
37530;DHT22;23374;52.758;6.872;2024-01-30T07:09:50;8.30;1.00
37530;DHT22;23374;52.758;6.872;2024-01-30T07:12:16;8.30;1.00
37530;DHT22;23374;52.758;6.872;2024-01-30T07:14:37;8.30;1.00
37530;DHT22;23374;52.758;6.872;2024-01-30T07:16:57;8.30;10.60
37530;DHT22;23374;52.758;6.872;2024-01-30T07:19:18;8.30;5.00
37530;DHT22;23374;52.758;6.872;2024-01-30T07:21:38;8.30;15.70
37530;DHT22;23374;52.758;6.872;2024-01-30T07:24:00;8.30;19.40
37530;DHT22;23374;52.758;6.872;2024-01-30T07:26:20;8.30;29.20
37530;DHT22;23374;52.758;6.872;2024-01-30T07:28:40;8.20;19.70
37530;DHT22;23374;52.758;6.872;2024-01-30T07:31:01;8.30;58.00
37530;DHT22;23374;52.758;6.872;2024-01-30T07:33:23;8.30;60.00
37530;DHT22;23374;52.758;6.872;2024-01-30T07:35:44;8.30;65.70
37530;DHT22;23374;52.758;6.872;2024-01-30T07:38:04;8.30;95.80
37530;DHT22;23374;52.758;6.872;2024-01-30T07:40:24;8.30;97.90
37530;DHT22;23374;52.758;6.872;2024-01-30T07:42:45;8.30;99.90
37530;DHT22;23374;52.758;6.872;2024-01-30T07:45:06;8.30;99.90
37530;DHT22;23374;52.758;6.872;2024-01-30T07:47:26;8.40;99.90
37530;DHT22;23374;52.758;6.872;2024-01-30T07:49:47;8.40;99.90
37530;DHT22;23374;52.758;6.872;2024-01-30T07:52:07;8.40;93.70
37530;DHT22;23374;52.758;6.872;2024-01-30T07:54:30;8.40;92.90
37530;DHT22;23374;52.758;6.872;2024-01-30T07:56:53;8.40;86.00
37530;DHT22;23374;52.758;6.872;2024-01-30T07:59:13;8.40;77.80
37530;DHT22;23374;52.758;6.872;2024-01-30T08:01:33;8.40;59.70
37530;DHT22;23374;52.758;6.872;2024-01-30T08:03:53;8.40;68.70
37530;DHT22;23374;52.758;6.872;2024-01-30T08:06:14;8.40;57.00
37530;DHT22;23374;52.758;6.872;2024-01-30T08:08:34;8.40;66.20
37530;DHT22;23374;52.758;6.872;2024-01-30T08:10:54;8.40;99.90
37530;DHT22;23374;52.758;6.872;2024-01-30T08:13:14;8.50;99.90
37530;DHT22;23374;52.758;6.872;2024-01-30T08:15:34;8.50;99.90
37530;DHT22;23374;52.758;6.872;2024-01-30T08:17:55;8.50;99.90
37530;DHT22;23374;52.758;6.872;2024-01-30T08:20:17;8.50;99.90
37530;DHT22;23374;52.758;6.872;2024-01-30T08:22:39;8.60;99.90
37530;DHT22;23374;52.758;6.872;2024-01-30T08:25:00;8.60;99.90
37530;DHT22;23374;52.758;6.872;2024-01-30T08:27:21;8.60;81.70
37530;DHT22;23374;52.758;6.872;2024-01-30T08:29:41;8.60;73.10
37530;DHT22;23374;52.758;6.872;2024-01-30T08:32:02;8.70;67.90
37530;DHT22;23374;52.758;6.872;2024-01-30T08:34:23;8.70;89.80
37530;DHT22;23374;52.758;6.872;2024-01-30T08:36:43;8.70;91.30
37530;DHT22;23374;52.758;6.872;2024-01-30T08:39:04;8.80;60.20
37530;DHT22;23374;52.758;6.872;2024-01-30T08:41:25;8.80;23.90
37530;DHT22;23374;52.758;6.872;2024-01-30T08:43:46;8.80;55.30
37530;DHT22;23374;52.758;6.872;2024-01-30T08:46:06;8.80;69.50
37530;DHT22;23374;52.758;6.872;2024-01-30T08:48:27;8.80;99.90
37530;DHT22;23374;52.758;6.872;2024-01-30T08:50:47;8.90;99.90
37530;DHT22;23374;52.758;6.872;2024-01-30T08:53:07;8.90;99.90
37530;DHT22;23374;52.758;6.872;2024-01-30T08:55:28;8.90;99.60
37530;DHT22;23374;52.758;6.872;2024-01-30T08:57:48;9.00;99.90
37530;DHT22;23374;52.758;6.872;2024-01-30T09:00:10;9.00;99.90
37530;DHT22;23374;52.758;6.872;2024-01-30T09:02:31;9.10;99.90
37530;DHT22;23374;52.758;6.872;2024-01-30T09:04:51;9.10;44.10
37530;DHT22;23374;52.758;6.872;2024-01-30T09:07:11;9.20;14.20
37530;DHT22;23374;52.758;6.872;2024-01-30T09:09:33;9.20;1.00
37530;DHT22;23374;52.758;6.872;2024-01-30T09:11:54;9.30;1.00
37530;DHT22;23374;52.758;6.872;2024-01-30T09:14:15;9.30;1.00
37530;DHT22;23374;52.758;6.872;2024-01-30T09:16:35;9.40;1.00
37530;DHT22;23374;52.758;6.872;2024-01-30T09:18:56;9.40;1.00
37530;DHT22;23374;52.758;6.872;2024-01-30T09:21:17;9.40;1.00
37530;DHT22;23374;52.758;6.872;2024-01-30T09:23:38;9.50;1.00
37530;DHT22;23374;52.758;6.872;2024-01-30T09:25:58;9.50;1.00
37530;DHT22;23374;52.758;6.872;2024-01-30T09:28:18;9.50;1.00
37530;DHT22;23374;52.758;6.872;2024-01-30T09:30:39;9.50;1.00
37530;DHT22;23374;52.758;6.872;2024-01-30T09:32:59;9.60;1.00
37530;DHT22;23374;52.758;6.872;2024-01-30T09:35:20;9.50;1.00
37530;DHT22;23374;52.758;6.872;2024-01-30T09:37:41;9.50;1.00
37530;DHT22;23374;52.758;6.872;2024-01-30T09:40:01;9.50;1.00
37530;DHT22;23374;52.758;6.872;2024-01-30T09:42:34;9.60;1.00
37530;DHT22;23374;52.758;6.872;2024-01-30T09:44:58;9.60;1.00
37530;DHT22;23374;52.758;6.872;2024-01-30T09:47:19;9.60;1.00
37530;DHT22;23374;52.758;6.872;2024-01-30T09:49:41;9.60;1.00
37530;DHT22;23374;52.758;6.872;2024-01-30T09:52:04;9.70;1.00
37530;DHT22;23374;52.758;6.872;2024-01-30T09:54:25;9.70;1.00
37530;DHT22;23374;52.758;6.872;2024-01-30T09:56:48;9.70;1.00
37530;DHT22;23374;52.758;6.872;2024-01-30T09:59:08;9.70;1.00
37530;DHT22;23374;52.758;6.872;2024-01-30T10:01:29;9.70;1.00
37530;DHT22;23374;52.758;6.872;2024-01-30T10:03:50;9.70;1.00
37530;DHT22;23374;52.758;6.872;2024-01-30T10:06:13;9.70;1.00
37530;DHT22;23374;52.758;6.872;2024-01-30T10:08:34;9.70;1.00
37530;DHT22;23374;52.758;6.872;2024-01-30T10:10:54;9.70;1.00
37530;DHT22;23374;52.758;6.872;2024-01-30T10:13:15;9.70;1.00
37530;DHT22;23374;52.758;6.872;2024-01-30T10:15:37;9.80;1.00
37530;DHT22;23374;52.758;6.872;2024-01-30T10:17:58;9.70;1.00
37530;DHT22;23374;52.758;6.872;2024-01-30T10:20:19;9.80;1.00
37530;DHT22;23374;52.758;6.872;2024-01-30T10:22:44;9.90;1.00
37530;DHT22;23374;52.758;6.872;2024-01-30T10:25:06;9.90;1.00
37530;DHT22;23374;52.758;6.872;2024-01-30T10:27:28;9.90;1.00
37530;DHT22;23374;52.758;6.872;2024-01-30T10:29:49;10.00;1.00
37530;DHT22;23374;52.758;6.872;2024-01-30T10:32:10;10.00;1.00
37530;DHT22;23374;52.758;6.872;2024-01-30T10:34:31;10.00;1.00
37530;DHT22;23374;52.758;6.872;2024-01-30T10:40:15;10.00;1.00
37530;DHT22;23374;52.758;6.872;2024-01-30T10:42:36;10.10;1.00
37530;DHT22;23374;52.758;6.872;2024-01-30T10:45:09;10.10;1.00
37530;DHT22;23374;52.758;6.872;2024-01-30T10:47:30;10.20;1.00
37530;DHT22;23374;52.758;6.872;2024-01-30T10:49:51;10.20;1.00
37530;DHT22;23374;52.758;6.872;2024-01-30T10:52:13;10.20;1.00
37530;DHT22;23374;52.758;6.872;2024-01-30T10:54:35;10.20;1.00
37530;DHT22;23374;52.758;6.872;2024-01-30T10:56:58;10.20;1.00
37530;DHT22;23374;52.758;6.872;2024-01-30T10:59:21;10.30;1.00
37530;DHT22;23374;52.758;6.872;2024-01-30T11:01:43;10.30;1.00
37530;DHT22;23374;52.758;6.872;2024-01-30T11:04:07;10.40;1.00
37530;DHT22;23374;52.758;6.872;2024-01-30T11:06:27;10.40;1.00
37530;DHT22;23374;52.758;6.872;2024-01-30T11:09:04;10.40;1.00
37530;DHT22;23374;52.758;6.872;2024-01-30T11:11:28;10.50;1.00
37530;DHT22;23374;52.758;6.872;2024-01-30T11:13:50;10.50;1.00
37530;DHT22;23374;52.758;6.872;2024-01-30T11:16:11;10.50;1.00
37530;DHT22;23374;52.758;6.872;2024-01-30T11:18:35;10.60;1.00
37530;DHT22;23374;52.758;6.872;2024-01-30T11:20:59;10.50;1.00
37530;DHT22;23374;52.758;6.872;2024-01-30T11:23:22;10.50;1.00
37530;DHT22;23374;52.758;6.872;2024-01-30T11:25:44;10.60;1.00
37530;DHT22;23374;52.758;6.872;2024-01-30T11:28:14;10.60;1.00
37530;DHT22;23374;52.758;6.872;2024-01-30T11:30:38;10.50;1.00
37530;DHT22;23374;52.758;6.872;2024-01-30T11:33:08;10.60;1.00
37530;DHT22;23374;52.758;6.872;2024-01-30T11:35:30;10.60;1.00
37530;DHT22;23374;52.758;6.872;2024-01-30T11:37:50;10.60;1.00
37530;DHT22;23374;52.758;6.872;2024-01-30T11:40:11;10.60;1.00
37530;DHT22;23374;52.758;6.872;2024-01-30T11:42:32;10.60;1.00
37530;DHT22;23374;52.758;6.872;2024-01-30T11:44:52;10.70;1.00
37530;DHT22;23374;52.758;6.872;2024-01-30T11:47:14;10.70;1.00
37530;DHT22;23374;52.758;6.872;2024-01-30T11:49:35;10.70;1.00
37530;DHT22;23374;52.758;6.872;2024-01-30T11:51:55;10.70;1.00
37530;DHT22;23374;52.758;6.872;2024-01-30T11:54:16;10.70;1.00
37530;DHT22;23374;52.758;6.872;2024-01-30T11:56:38;10.80;1.00
37530;DHT22;23374;52.758;6.872;2024-01-30T11:59:01;10.80;8.50
37530;DHT22;23374;52.758;6.872;2024-01-30T12:01:21;10.80;1.00
37530;DHT22;23374;52.758;6.872;2024-01-30T12:03:42;10.80;1.00
37530;DHT22;23374;52.758;6.872;2024-01-30T12:06:03;10.80;1.00
37530;DHT22;23374;52.758;6.872;2024-01-30T12:08:23;10.90;1.00
37530;DHT22;23374;52.758;6.872;2024-01-30T12:10:43;10.90;1.00
37530;DHT22;23374;52.758;6.872;2024-01-30T12:13:04;10.90;1.00
37530;DHT22;23374;52.758;6.872;2024-01-30T12:15:24;10.90;1.00
37530;DHT22;23374;52.758;6.872;2024-01-30T12:17:45;10.90;1.00
37530;DHT22;23374;52.758;6.872;2024-01-30T12:20:18;10.90;1.00
37530;DHT22;23374;52.758;6.872;2024-01-30T12:22:41;10.90;1.00
37530;DHT22;23374;52.758;6.872;2024-01-30T12:25:01;11.00;1.00
37530;DHT22;23374;52.758;6.872;2024-01-30T12:27:22;11.00;1.00
37530;DHT22;23374;52.758;6.872;2024-01-30T12:29:43;11.00;1.00
37530;DHT22;23374;52.758;6.872;2024-01-30T12:32:05;11.10;1.00
37530;DHT22;23374;52.758;6.872;2024-01-30T12:34:25;11.10;1.00
37530;DHT22;23374;52.758;6.872;2024-01-30T12:36:46;11.20;1.00
37530;DHT22;23374;52.758;6.872;2024-01-30T12:39:10;11.20;1.00
37530;DHT22;23374;52.758;6.872;2024-01-30T12:41:31;11.30;1.00
37530;DHT22;23374;52.758;6.872;2024-01-30T12:43:52;11.30;1.00
37530;DHT22;23374;52.758;6.872;2024-01-30T12:46:12;11.30;1.00
37530;DHT22;23374;52.758;6.872;2024-01-30T12:48:32;11.40;1.00
37530;DHT22;23374;52.758;6.872;2024-01-30T12:50:53;11.40;1.00
37530;DHT22;23374;52.758;6.872;2024-01-30T12:53:13;11.40;1.00
37530;DHT22;23374;52.758;6.872;2024-01-30T12:55:34;11.40;99.90
37530;DHT22;23374;52.758;6.872;2024-01-30T12:57:54;11.40;99.90
37530;DHT22;23374;52.758;6.872;2024-01-30T13:00:15;11.50;99.90
37530;DHT22;23374;52.758;6.872;2024-01-30T13:02:37;11.40;99.90
37530;DHT22;23374;52.758;6.872;2024-01-30T13:04:57;11.50;99.90
37530;DHT22;23374;52.758;6.872;2024-01-30T13:07:17;11.50;99.90
37530;DHT22;23374;52.758;6.872;2024-01-30T13:09:38;11.50;99.90
37530;DHT22;23374;52.758;6.872;2024-01-30T13:11:59;11.40;99.90
37530;DHT22;23374;52.758;6.872;2024-01-30T13:14:20;11.40;99.90
37530;DHT22;23374;52.758;6.872;2024-01-30T13:16:40;11.40;99.90
37530;DHT22;23374;52.758;6.872;2024-01-30T13:19:01;11.40;46.30
37530;DHT22;23374;52.758;6.872;2024-01-30T13:21:22;11.40;56.50
37530;DHT22;23374;52.758;6.872;2024-01-30T13:23:43;11.30;26.40
37530;DHT22;23374;52.758;6.872;2024-01-30T13:26:04;11.20;1.00
37530;DHT22;23374;52.758;6.872;2024-01-30T13:28:24;11.10;1.00
37530;DHT22;23374;52.758;6.872;2024-01-30T13:30:46;11.10;1.00
37530;DHT22;23374;52.758;6.872;2024-01-30T13:33:06;11.00;53.20
37530;DHT22;23374;52.758;6.872;2024-01-30T13:35:26;11.00;14.40
37530;DHT22;23374;52.758;6.872;2024-01-30T13:37:47;10.90;1.00
37530;DHT22;23374;52.758;6.872;2024-01-30T13:40:10;10.90;1.00
37530;DHT22;23374;52.758;6.872;2024-01-30T13:42:30;10.90;1.00
37530;DHT22;23374;52.758;6.872;2024-01-30T13:44:51;10.90;1.00
37530;DHT22;23374;52.758;6.872;2024-01-30T13:47:12;10.90;1.00
37530;DHT22;23374;52.758;6.872;2024-01-30T13:49:32;10.90;1.00
37530;DHT22;23374;52.758;6.872;2024-01-30T13:51:53;10.90;1.00
37530;DHT22;23374;52.758;6.872;2024-01-30T13:54:13;10.90;1.00
37530;DHT22;23374;52.758;6.872;2024-01-30T13:56:35;10.90;1.00
37530;DHT22;23374;52.758;6.872;2024-01-30T13:58:56;10.90;1.00
37530;DHT22;23374;52.758;6.872;2024-01-30T14:01:16;10.80;1.00
37530;DHT22;23374;52.758;6.872;2024-01-30T14:03:37;10.80;1.00
37530;DHT22;23374;52.758;6.872;2024-01-30T14:05:58;10.70;99.90
37530;DHT22;23374;52.758;6.872;2024-01-30T14:08:18;10.80;1.00
37530;DHT22;23374;52.758;6.872;2024-01-30T14:10:40;10.80;1.00
37530;DHT22;23374;52.758;6.872;2024-01-30T14:13:00;10.70;1.00
37530;DHT22;23374;52.758;6.872;2024-01-30T14:15:21;10.70;99.90
37530;DHT22;23374;52.758;6.872;2024-01-30T14:17:42;10.60;1.00
37530;DHT22;23374;52.758;6.872;2024-01-30T14:20:07;10.60;1.00
37530;DHT22;23374;52.758;6.872;2024-01-30T14:22:27;10.50;1.00
37530;DHT22;23374;52.758;6.872;2024-01-30T14:24:48;10.50;1.00
37530;DHT22;23374;52.758;6.872;2024-01-30T14:27:10;10.50;1.00
37530;DHT22;23374;52.758;6.872;2024-01-30T14:29:30;10.50;1.00
37530;DHT22;23374;52.758;6.872;2024-01-30T14:31:50;10.40;1.00
37530;DHT22;23374;52.758;6.872;2024-01-30T14:34:10;10.40;1.00
37530;DHT22;23374;52.758;6.872;2024-01-30T14:36:32;10.40;1.00
37530;DHT22;23374;52.758;6.872;2024-01-30T14:38:52;10.40;1.00
37530;DHT22;23374;52.758;6.872;2024-01-30T14:41:13;10.40;1.00
37530;DHT22;23374;52.758;6.872;2024-01-30T14:43:33;10.40;1.00
37530;DHT22;23374;52.758;6.872;2024-01-30T14:45:53;10.40;1.00
37530;DHT22;23374;52.758;6.872;2024-01-30T14:48:14;10.40;1.00
37530;DHT22;23374;52.758;6.872;2024-01-30T14:50:34;10.30;1.00
37530;DHT22;23374;52.758;6.872;2024-01-30T14:52:55;10.30;1.00
37530;DHT22;23374;52.758;6.872;2024-01-30T14:55:15;10.30;1.00
37530;DHT22;23374;52.758;6.872;2024-01-30T14:57:36;10.30;1.00
37530;DHT22;23374;52.758;6.872;2024-01-30T14:59:58;10.20;1.00
37530;DHT22;23374;52.758;6.872;2024-01-30T15:02:18;10.20;1.00
37530;DHT22;23374;52.758;6.872;2024-01-30T15:04:38;10.20;1.00
37530;DHT22;23374;52.758;6.872;2024-01-30T15:06:59;10.20;1.00
37530;DHT22;23374;52.758;6.872;2024-01-30T15:09:19;10.20;1.00
37530;DHT22;23374;52.758;6.872;2024-01-30T15:11:43;10.20;1.00